sensor_id;sensor_type;location;lat;lon;timestamp;P1;durP1;ratioP1;P2;durP2;ratioP2
1545;SDS011;766;51.502;9.752;2022-09-27T00:01:07;1.80;;;1.58;;
1545;SDS011;766;51.502;9.752;2022-09-27T00:03:37;1.88;;;1.42;;
1545;SDS011;766;51.502;9.752;2022-09-27T00:06:08;1.70;;;1.40;;
1545;SDS011;766;51.502;9.752;2022-09-27T00:08:39;1.65;;;1.30;;
1545;SDS011;766;51.502;9.752;2022-09-27T00:11:10;3.38;;;1.42;;
1545;SDS011;766;51.502;9.752;2022-09-27T00:13:46;1.83;;;1.42;;
1545;SDS011;766;51.502;9.752;2022-09-27T00:16:15;2.88;;;1.48;;
1545;SDS011;766;51.502;9.752;2022-09-27T00:18:46;1.65;;;1.48;;
1545;SDS011;766;51.502;9.752;2022-09-27T00:21:15;2.70;;;1.73;;
1545;SDS011;766;51.502;9.752;2022-09-27T00:23:45;2.42;;;1.40;;
1545;SDS011;766;51.502;9.752;2022-09-27T00:26:14;4.03;;;1.38;;
1545;SDS011;766;51.502;9.752;2022-09-27T00:28:44;1.73;;;1.30;;
1545;SDS011;766;51.502;9.752;2022-09-27T00:31:17;1.98;;;1.50;;
1545;SDS011;766;51.502;9.752;2022-09-27T00:33:50;1.65;;;1.45;;
1545;SDS011;766;51.502;9.752;2022-09-27T00:36:21;1.63;;;1.20;;
1545;SDS011;766;51.502;9.752;2022-09-27T00:38:51;1.20;;;1.10;;
1545;SDS011;766;51.502;9.752;2022-09-27T00:41:21;2.58;;;1.42;;
1545;SDS011;766;51.502;9.752;2022-09-27T00:43:52;2.22;;;1.35;;
1545;SDS011;766;51.502;9.752;2022-09-27T00:46:25;1.80;;;1.38;;
1545;SDS011;766;51.502;9.752;2022-09-27T00:49:04;2.78;;;1.23;;
1545;SDS011;766;51.502;9.752;2022-09-27T00:51:40;1.38;;;1.25;;
1545;SDS011;766;51.502;9.752;2022-09-27T00:54:12;1.92;;;1.30;;
1545;SDS011;766;51.502;9.752;2022-09-27T00:56:44;1.55;;;1.23;;
1545;SDS011;766;51.502;9.752;2022-09-27T00:59:16;1.65;;;1.55;;
1545;SDS011;766;51.502;9.752;2022-09-27T01:01:51;1.60;;;1.50;;
1545;SDS011;766;51.502;9.752;2022-09-27T01:04:23;2.30;;;2.10;;
1545;SDS011;766;51.502;9.752;2022-09-27T01:06:56;2.15;;;1.95;;
1545;SDS011;766;51.502;9.752;2022-09-27T01:09:25;3.30;;;2.00;;
1545;SDS011;766;51.502;9.752;2022-09-27T01:11:56;2.78;;;2.05;;
1545;SDS011;766;51.502;9.752;2022-09-27T01:14:40;3.95;;;2.20;;
1545;SDS011;766;51.502;9.752;2022-09-27T01:17:24;2.20;;;2.00;;
1545;SDS011;766;51.502;9.752;2022-09-27T01:20:13;3.35;;;2.47;;
1545;SDS011;766;51.502;9.752;2022-09-27T01:23:03;2.72;;;2.40;;
1545;SDS011;766;51.502;9.752;2022-09-27T01:25:51;4.40;;;3.00;;
1545;SDS011;766;51.502;9.752;2022-09-27T01:28:36;3.05;;;2.75;;
1545;SDS011;766;51.502;9.752;2022-09-27T01:31:20;2.90;;;2.63;;
1545;SDS011;766;51.502;9.752;2022-09-27T01:33:55;3.58;;;2.10;;
1545;SDS011;766;51.502;9.752;2022-09-27T01:36:36;3.25;;;2.70;;
1545;SDS011;766;51.502;9.752;2022-09-27T01:39:17;3.38;;;2.95;;
1545;SDS011;766;51.502;9.752;2022-09-27T01:41:55;3.88;;;2.55;;
1545;SDS011;766;51.502;9.752;2022-09-27T01:44:30;2.92;;;2.67;;
1545;SDS011;766;51.502;9.752;2022-09-27T01:47:06;3.08;;;2.70;;
1545;SDS011;766;51.502;9.752;2022-09-27T01:49:40;6.18;;;3.22;;
1545;SDS011;766;51.502;9.752;2022-09-27T01:52:16;3.08;;;2.78;;
1545;SDS011;766;51.502;9.752;2022-09-27T01:54:50;4.65;;;2.70;;
1545;SDS011;766;51.502;9.752;2022-09-27T01:57:24;3.30;;;2.65;;
1545;SDS011;766;51.502;9.752;2022-09-27T01:59:58;5.15;;;3.33;;
1545;SDS011;766;51.502;9.752;2022-09-27T02:02:32;4.60;;;3.33;;
1545;SDS011;766;51.502;9.752;2022-09-27T02:05:07;3.58;;;3.00;;
1545;SDS011;766;51.502;9.752;2022-09-27T02:07:44;4.60;;;2.97;;
1545;SDS011;766;51.502;9.752;2022-09-27T02:10:17;4.40;;;3.00;;
1545;SDS011;766;51.502;9.752;2022-09-27T02:12:51;3.50;;;3.20;;
1545;SDS011;766;51.502;9.752;2022-09-27T02:15:33;3.70;;;3.15;;
1545;SDS011;766;51.502;9.752;2022-09-27T02:18:14;3.72;;;3.10;;
1545;SDS011;766;51.502;9.752;2022-09-27T02:20:48;4.45;;;3.35;;
1545;SDS011;766;51.502;9.752;2022-09-27T02:23:22;6.88;;;3.80;;
1545;SDS011;766;51.502;9.752;2022-09-27T02:25:56;4.53;;;3.40;;
1545;SDS011;766;51.502;9.752;2022-09-27T02:28:27;5.40;;;3.30;;
1545;SDS011;766;51.502;9.752;2022-09-27T02:31:00;4.30;;;3.53;;
1545;SDS011;766;51.502;9.752;2022-09-27T02:33:31;6.53;;;4.72;;
1545;SDS011;766;51.502;9.752;2022-09-27T02:36:04;4.85;;;4.40;;
1545;SDS011;766;51.502;9.752;2022-09-27T02:38:34;6.45;;;5.22;;
1545;SDS011;766;51.502;9.752;2022-09-27T02:41:11;6.70;;;5.28;;
1545;SDS011;766;51.502;9.752;2022-09-27T02:43:42;8.85;;;5.03;;
1545;SDS011;766;51.502;9.752;2022-09-27T02:46:15;6.47;;;5.28;;
1545;SDS011;766;51.502;9.752;2022-09-27T02:48:56;6.05;;;5.07;;
1545;SDS011;766;51.502;9.752;2022-09-27T02:51:42;9.05;;;5.13;;
1545;SDS011;766;51.502;9.752;2022-09-27T02:54:22;7.28;;;5.18;;
1545;SDS011;766;51.502;9.752;2022-09-27T02:57:00;8.52;;;5.75;;
1545;SDS011;766;51.502;9.752;2022-09-27T02:59:40;7.68;;;5.32;;
1545;SDS011;766;51.502;9.752;2022-09-27T03:02:18;9.60;;;6.57;;
1545;SDS011;766;51.502;9.752;2022-09-27T03:04:56;10.10;;;6.03;;
1545;SDS011;766;51.502;9.752;2022-09-27T03:07:28;8.85;;;6.60;;
1545;SDS011;766;51.502;9.752;2022-09-27T03:09:58;10.00;;;6.22;;
1545;SDS011;766;51.502;9.752;2022-09-27T03:12:27;11.05;;;6.88;;
1545;SDS011;766;51.502;9.752;2022-09-27T03:14:57;9.07;;;6.15;;
1545;SDS011;766;51.502;9.752;2022-09-27T03:17:27;9.70;;;6.85;;
1545;SDS011;766;51.502;9.752;2022-09-27T03:19:57;10.82;;;7.07;;
1545;SDS011;766;51.502;9.752;2022-09-27T03:22:25;10.07;;;6.82;;
1545;SDS011;766;51.502;9.752;2022-09-27T03:24:53;9.82;;;6.55;;
1545;SDS011;766;51.502;9.752;2022-09-27T03:27:23;9.90;;;6.68;;
1545;SDS011;766;51.502;9.752;2022-09-27T03:29:51;8.75;;;6.50;;
1545;SDS011;766;51.502;9.752;2022-09-27T03:32:19;8.98;;;6.90;;
1545;SDS011;766;51.502;9.752;2022-09-27T03:34:49;9.27;;;6.72;;
1545;SDS011;766;51.502;9.752;2022-09-27T03:37:26;8.30;;;6.55;;
1545;SDS011;766;51.502;9.752;2022-09-27T03:39:56;17.45;;;5.43;;
1545;SDS011;766;51.502;9.752;2022-09-27T03:42:24;8.25;;;6.20;;
1545;SDS011;766;51.502;9.752;2022-09-27T03:44:53;8.68;;;6.78;;
1545;SDS011;766;51.502;9.752;2022-09-27T03:47:21;7.18;;;6.00;;
1545;SDS011;766;51.502;9.752;2022-09-27T03:49:50;8.35;;;5.53;;
1545;SDS011;766;51.502;9.752;2022-09-27T03:52:20;8.48;;;5.80;;
1545;SDS011;766;51.502;9.752;2022-09-27T03:54:50;7.70;;;5.70;;
1545;SDS011;766;51.502;9.752;2022-09-27T03:57:21;8.80;;;5.13;;
1545;SDS011;766;51.502;9.752;2022-09-27T03:59:50;6.07;;;4.78;;
1545;SDS011;766;51.502;9.752;2022-09-27T04:02:18;9.10;;;4.80;;
1545;SDS011;766;51.502;9.752;2022-09-27T04:04:47;6.43;;;3.95;;
1545;SDS011;766;51.502;9.752;2022-09-27T04:07:16;5.68;;;3.50;;
1545;SDS011;766;51.502;9.752;2022-09-27T04:09:45;5.03;;;2.50;;
1545;SDS011;766;51.502;9.752;2022-09-27T04:12:14;3.90;;;1.52;;
1545;SDS011;766;51.502;9.752;2022-09-27T04:14:43;1.38;;;1.23;;
1545;SDS011;766;51.502;9.752;2022-09-27T04:17:14;2.28;;;1.30;;
1545;SDS011;766;51.502;9.752;2022-09-27T04:19:43;2.75;;;1.30;;
1545;SDS011;766;51.502;9.752;2022-09-27T04:22:11;4.82;;;1.48;;
1545;SDS011;766;51.502;9.752;2022-09-27T04:24:40;1.70;;;1.00;;
1545;SDS011;766;51.502;9.752;2022-09-27T04:27:09;1.40;;;0.95;;
1545;SDS011;766;51.502;9.752;2022-09-27T04:29:38;2.45;;;1.00;;
1545;SDS011;766;51.502;9.752;2022-09-27T04:32:11;3.17;;;1.10;;
1545;SDS011;766;51.502;9.752;2022-09-27T04:34:39;2.50;;;0.90;;
1545;SDS011;766;51.502;9.752;2022-09-27T04:37:25;1.00;;;0.88;;
1545;SDS011;766;51.502;9.752;2022-09-27T04:39:54;0.98;;;0.80;;
1545;SDS011;766;51.502;9.752;2022-09-27T04:42:22;1.92;;;1.13;;
1545;SDS011;766;51.502;9.752;2022-09-27T04:44:58;3.05;;;1.17;;
1545;SDS011;766;51.502;9.752;2022-09-27T04:47:27;1.55;;;0.80;;
1545;SDS011;766;51.502;9.752;2022-09-27T04:49:56;3.08;;;0.90;;
1545;SDS011;766;51.502;9.752;2022-09-27T04:52:25;2.20;;;0.60;;
1545;SDS011;766;51.502;9.752;2022-09-27T04:54:54;1.92;;;0.80;;
1545;SDS011;766;51.502;9.752;2022-09-27T04:57:22;4.22;;;0.77;;
1545;SDS011;766;51.502;9.752;2022-09-27T04:59:51;0.80;;;0.50;;
1545;SDS011;766;51.502;9.752;2022-09-27T05:02:21;1.63;;;0.77;;
1545;SDS011;766;51.502;9.752;2022-09-27T05:04:50;2.45;;;0.60;;
1545;SDS011;766;51.502;9.752;2022-09-27T05:07:18;2.08;;;0.80;;
1545;SDS011;766;51.502;9.752;2022-09-27T05:09:47;2.38;;;0.90;;
1545;SDS011;766;51.502;9.752;2022-09-27T05:12:15;0.82;;;0.80;;
1545;SDS011;766;51.502;9.752;2022-09-27T05:14:44;1.95;;;0.60;;
1545;SDS011;766;51.502;9.752;2022-09-27T05:17:12;1.83;;;0.60;;
1545;SDS011;766;51.502;9.752;2022-09-27T05:19:43;6.35;;;1.17;;
1545;SDS011;766;51.502;9.752;2022-09-27T05:22:11;0.73;;;0.70;;
1545;SDS011;766;51.502;9.752;2022-09-27T05:24:40;1.45;;;0.70;;
1545;SDS011;766;51.502;9.752;2022-09-27T05:27:09;3.10;;;0.60;;
1545;SDS011;766;51.502;9.752;2022-09-27T05:29:44;5.53;;;1.05;;
1545;SDS011;766;51.502;9.752;2022-09-27T05:32:13;1.55;;;0.88;;
1545;SDS011;766;51.502;9.752;2022-09-27T05:34:43;1.48;;;0.55;;
1545;SDS011;766;51.502;9.752;2022-09-27T05:37:11;1.30;;;0.60;;
1545;SDS011;766;51.502;9.752;2022-09-27T05:39:40;3.50;;;0.70;;
1545;SDS011;766;51.502;9.752;2022-09-27T05:42:12;1.60;;;0.70;;
1545;SDS011;766;51.502;9.752;2022-09-27T05:44:40;2.63;;;0.68;;
1545;SDS011;766;51.502;9.752;2022-09-27T05:47:14;1.95;;;0.80;;
1545;SDS011;766;51.502;9.752;2022-09-27T05:49:44;1.52;;;0.70;;
1545;SDS011;766;51.502;9.752;2022-09-27T05:52:12;2.67;;;0.85;;
1545;SDS011;766;51.502;9.752;2022-09-27T05:54:43;3.90;;;0.85;;
1545;SDS011;766;51.502;9.752;2022-09-27T05:57:11;1.00;;;0.80;;
1545;SDS011;766;51.502;9.752;2022-09-27T05:59:40;1.42;;;0.68;;
1545;SDS011;766;51.502;9.752;2022-09-27T06:02:09;4.25;;;1.20;;
1545;SDS011;766;51.502;9.752;2022-09-27T06:04:38;3.45;;;1.23;;
1545;SDS011;766;51.502;9.752;2022-09-27T06:07:08;5.38;;;1.25;;
1545;SDS011;766;51.502;9.752;2022-09-27T06:09:37;2.53;;;1.08;;
1545;SDS011;766;51.502;9.752;2022-09-27T06:12:08;5.22;;;1.27;;
1545;SDS011;766;51.502;9.752;2022-09-27T06:14:37;4.95;;;1.20;;
1545;SDS011;766;51.502;9.752;2022-09-27T06:17:06;3.00;;;1.08;;
1545;SDS011;766;51.502;9.752;2022-09-27T06:19:35;3.97;;;1.10;;
1545;SDS011;766;51.502;9.752;2022-09-27T06:22:03;3.60;;;1.45;;
1545;SDS011;766;51.502;9.752;2022-09-27T06:24:35;2.28;;;0.90;;
1545;SDS011;766;51.502;9.752;2022-09-27T06:27:03;3.22;;;0.98;;
1545;SDS011;766;51.502;9.752;2022-09-27T06:29:36;1.60;;;0.80;;
1545;SDS011;766;51.502;9.752;2022-09-27T06:32:05;2.45;;;0.90;;
1545;SDS011;766;51.502;9.752;2022-09-27T06:34:33;1.85;;;0.80;;
1545;SDS011;766;51.502;9.752;2022-09-27T06:37:02;0.90;;;0.60;;
1545;SDS011;766;51.502;9.752;2022-09-27T06:39:30;0.65;;;0.60;;
1545;SDS011;766;51.502;9.752;2022-09-27T06:42:01;2.60;;;0.70;;
1545;SDS011;766;51.502;9.752;2022-09-27T06:44:30;1.08;;;0.60;;
1545;SDS011;766;51.502;9.752;2022-09-27T06:46:58;1.25;;;0.52;;
1545;SDS011;766;51.502;9.752;2022-09-27T06:49:27;1.23;;;0.70;;
1545;SDS011;766;51.502;9.752;2022-09-27T06:51:56;3.13;;;0.73;;
1545;SDS011;766;51.502;9.752;2022-09-27T06:54:25;1.77;;;0.80;;
1545;SDS011;766;51.502;9.752;2022-09-27T06:56:57;1.90;;;1.10;;
1545;SDS011;766;51.502;9.752;2022-09-27T06:59:29;2.00;;;0.80;;
1545;SDS011;766;51.502;9.752;2022-09-27T07:02:15;1.90;;;1.23;;
1545;SDS011;766;51.502;9.752;2022-09-27T07:04:44;2.00;;;1.05;;
1545;SDS011;766;51.502;9.752;2022-09-27T07:07:12;2.05;;;1.15;;
1545;SDS011;766;51.502;9.752;2022-09-27T07:09:41;3.15;;;1.33;;
1545;SDS011;766;51.502;9.752;2022-09-27T07:12:10;5.13;;;1.42;;
1545;SDS011;766;51.502;9.752;2022-09-27T07:14:41;5.57;;;1.92;;
1545;SDS011;766;51.502;9.752;2022-09-27T07:17:11;1.92;;;1.15;;
1545;SDS011;766;51.502;9.752;2022-09-27T07:19:40;1.80;;;1.10;;
1545;SDS011;766;51.502;9.752;2022-09-27T07:22:08;4.70;;;1.30;;
1545;SDS011;766;51.502;9.752;2022-09-27T07:24:38;3.45;;;1.50;;
1545;SDS011;766;51.502;9.752;2022-09-27T07:27:12;2.30;;;1.00;;
1545;SDS011;766;51.502;9.752;2022-09-27T07:29:44;2.50;;;1.08;;
1545;SDS011;766;51.502;9.752;2022-09-27T07:32:22;1.27;;;0.80;;
1545;SDS011;766;51.502;9.752;2022-09-27T07:34:51;1.85;;;1.00;;
1545;SDS011;766;51.502;9.752;2022-09-27T07:37:20;3.70;;;1.40;;
1545;SDS011;766;51.502;9.752;2022-09-27T07:39:48;4.10;;;1.35;;
1545;SDS011;766;51.502;9.752;2022-09-27T07:42:17;1.73;;;1.50;;
1545;SDS011;766;51.502;9.752;2022-09-27T07:44:47;3.10;;;1.10;;
1545;SDS011;766;51.502;9.752;2022-09-27T07:47:16;2.22;;;1.20;;
1545;SDS011;766;51.502;9.752;2022-09-27T07:49:45;8.02;;;1.30;;
1545;SDS011;766;51.502;9.752;2022-09-27T07:52:13;5.45;;;1.52;;
1545;SDS011;766;51.502;9.752;2022-09-27T07:54:42;3.03;;;1.10;;
1545;SDS011;766;51.502;9.752;2022-09-27T07:57:10;4.75;;;1.20;;
1545;SDS011;766;51.502;9.752;2022-09-27T07:59:39;2.53;;;1.17;;
1545;SDS011;766;51.502;9.752;2022-09-27T08:02:10;6.00;;;1.27;;
1545;SDS011;766;51.502;9.752;2022-09-27T08:04:41;3.42;;;1.30;;
1545;SDS011;766;51.502;9.752;2022-09-27T08:07:13;4.72;;;1.33;;
1545;SDS011;766;51.502;9.752;2022-09-27T08:09:42;4.53;;;1.30;;
1545;SDS011;766;51.502;9.752;2022-09-27T08:12:10;2.97;;;1.27;;
1545;SDS011;766;51.502;9.752;2022-09-27T08:14:39;0.85;;;0.82;;
1545;SDS011;766;51.502;9.752;2022-09-27T08:17:15;2.40;;;0.90;;
1545;SDS011;766;51.502;9.752;2022-09-27T08:19:46;1.55;;;1.02;;
1545;SDS011;766;51.502;9.752;2022-09-27T08:22:15;1.95;;;1.10;;
1545;SDS011;766;51.502;9.752;2022-09-27T08:24:46;2.05;;;1.02;;
1545;SDS011;766;51.502;9.752;2022-09-27T08:27:15;4.25;;;1.50;;
1545;SDS011;766;51.502;9.752;2022-09-27T08:29:44;3.75;;;1.00;;
1545;SDS011;766;51.502;9.752;2022-09-27T08:32:14;4.72;;;1.70;;
1545;SDS011;766;51.502;9.752;2022-09-27T08:34:48;4.45;;;1.40;;
1545;SDS011;766;51.502;9.752;2022-09-27T08:37:17;1.33;;;0.90;;
1545;SDS011;766;51.502;9.752;2022-09-27T08:39:46;4.05;;;1.08;;
1545;SDS011;766;51.502;9.752;2022-09-27T08:42:16;5.55;;;1.10;;
1545;SDS011;766;51.502;9.752;2022-09-27T08:44:54;2.33;;;1.15;;
1545;SDS011;766;51.502;9.752;2022-09-27T08:47:32;3.47;;;1.23;;
1545;SDS011;766;51.502;9.752;2022-09-27T08:50:05;3.65;;;1.40;;
1545;SDS011;766;51.502;9.752;2022-09-27T08:52:47;3.33;;;1.45;;
1545;SDS011;766;51.502;9.752;2022-09-27T08:55:25;3.10;;;1.38;;
1545;SDS011;766;51.502;9.752;2022-09-27T08:57:57;3.80;;;1.33;;
1545;SDS011;766;51.502;9.752;2022-09-27T09:00:26;3.33;;;1.30;;
1545;SDS011;766;51.502;9.752;2022-09-27T09:02:57;3.90;;;1.30;;
1545;SDS011;766;51.502;9.752;2022-09-27T09:05:33;4.22;;;1.60;;
1545;SDS011;766;51.502;9.752;2022-09-27T09:08:07;8.07;;;1.35;;
1545;SDS011;766;51.502;9.752;2022-09-27T09:10:51;3.72;;;1.00;;
1545;SDS011;766;51.502;9.752;2022-09-27T09:13:46;5.90;;;1.20;;
1545;SDS011;766;51.502;9.752;2022-09-27T09:16:41;1.33;;;1.20;;
1545;SDS011;766;51.502;9.752;2022-09-27T09:19:26;3.65;;;1.45;;
1545;SDS011;766;51.502;9.752;2022-09-27T09:22:12;1.27;;;1.08;;
1545;SDS011;766;51.502;9.752;2022-09-27T09:25:04;5.00;;;1.27;;
1545;SDS011;766;51.502;9.752;2022-09-27T09:27:46;4.03;;;1.58;;
1545;SDS011;766;51.502;9.752;2022-09-27T09:30:29;4.00;;;1.70;;
1545;SDS011;766;51.502;9.752;2022-09-27T09:33:13;3.70;;;1.40;;
1545;SDS011;766;51.502;9.752;2022-09-27T09:35:50;2.35;;;1.70;;
1545;SDS011;766;51.502;9.752;2022-09-27T09:38:25;4.60;;;1.88;;
1545;SDS011;766;51.502;9.752;2022-09-27T09:41:04;2.70;;;1.80;;
1545;SDS011;766;51.502;9.752;2022-09-27T09:43:39;2.72;;;1.88;;
1545;SDS011;766;51.502;9.752;2022-09-27T09:46:15;3.97;;;1.73;;
1545;SDS011;766;51.502;9.752;2022-09-27T09:48:49;3.00;;;1.65;;
1545;SDS011;766;51.502;9.752;2022-09-27T09:51:26;4.43;;;1.50;;
1545;SDS011;766;51.502;9.752;2022-09-27T09:54:01;3.63;;;1.58;;
1545;SDS011;766;51.502;9.752;2022-09-27T09:56:34;4.47;;;2.03;;
1545;SDS011;766;51.502;9.752;2022-09-27T09:59:09;4.25;;;2.00;;
1545;SDS011;766;51.502;9.752;2022-09-27T10:01:42;4.55;;;1.90;;
1545;SDS011;766;51.502;9.752;2022-09-27T10:04:18;4.30;;;2.30;;
1545;SDS011;766;51.502;9.752;2022-09-27T10:06:50;2.88;;;2.17;;
1545;SDS011;766;51.502;9.752;2022-09-27T10:09:21;5.18;;;2.08;;
1545;SDS011;766;51.502;9.752;2022-09-27T10:11:51;4.47;;;2.20;;
1545;SDS011;766;51.502;9.752;2022-09-27T10:14:21;5.63;;;2.08;;
1545;SDS011;766;51.502;9.752;2022-09-27T10:16:52;6.22;;;2.67;;
1545;SDS011;766;51.502;9.752;2022-09-27T10:19:26;2.80;;;2.10;;
1545;SDS011;766;51.502;9.752;2022-09-27T10:21:58;5.70;;;2.38;;
1545;SDS011;766;51.502;9.752;2022-09-27T10:24:29;4.75;;;2.53;;
1545;SDS011;766;51.502;9.752;2022-09-27T10:27:23;3.75;;;1.98;;
1545;SDS011;766;51.502;9.752;2022-09-27T10:29:56;4.28;;;2.70;;
1545;SDS011;766;51.502;9.752;2022-09-27T10:32:27;4.10;;;2.85;;
1545;SDS011;766;51.502;9.752;2022-09-27T10:37:51;4.13;;;2.90;;
1545;SDS011;766;51.502;9.752;2022-09-27T10:40:26;3.97;;;2.80;;
1545;SDS011;766;51.502;9.752;2022-09-27T10:42:56;5.97;;;3.65;;
1545;SDS011;766;51.502;9.752;2022-09-27T10:45:26;5.57;;;3.20;;
1545;SDS011;766;51.502;9.752;2022-09-27T10:47:56;3.75;;;3.25;;
1545;SDS011;766;51.502;9.752;2022-09-27T10:50:28;4.45;;;2.90;;
1545;SDS011;766;51.502;9.752;2022-09-27T10:53:19;7.43;;;3.10;;
1545;SDS011;766;51.502;9.752;2022-09-27T10:55:49;3.25;;;2.80;;
1545;SDS011;766;51.502;9.752;2022-09-27T10:58:19;6.53;;;3.50;;
1545;SDS011;766;51.502;9.752;2022-09-27T11:00:55;4.32;;;3.00;;
1545;SDS011;766;51.502;9.752;2022-09-27T11:03:26;4.43;;;2.95;;
1545;SDS011;766;51.502;9.752;2022-09-27T11:05:57;6.50;;;3.00;;
1545;SDS011;766;51.502;9.752;2022-09-27T11:08:30;6.97;;;3.00;;
1545;SDS011;766;51.502;9.752;2022-09-27T11:11:02;4.90;;;2.60;;
1545;SDS011;766;51.502;9.752;2022-09-27T11:13:55;8.98;;;2.58;;
1545;SDS011;766;51.502;9.752;2022-09-27T11:16:29;7.22;;;2.05;;
1545;SDS011;766;51.502;9.752;2022-09-27T11:19:12;3.67;;;1.50;;
1545;SDS011;766;51.502;9.752;2022-09-27T11:21:51;2.75;;;1.60;;
1545;SDS011;766;51.502;9.752;2022-09-27T11:24:32;4.68;;;1.60;;
1545;SDS011;766;51.502;9.752;2022-09-27T11:27:26;3.45;;;1.30;;
1545;SDS011;766;51.502;9.752;2022-09-27T11:30:07;3.78;;;1.33;;
1545;SDS011;766;51.502;9.752;2022-09-27T11:35:37;6.95;;;1.58;;
1545;SDS011;766;51.502;9.752;2022-09-27T11:38:24;3.10;;;0.82;;
1545;SDS011;766;51.502;9.752;2022-09-27T11:41:22;3.03;;;1.08;;
1545;SDS011;766;51.502;9.752;2022-09-27T11:46:54;3.38;;;1.20;;
1545;SDS011;766;51.502;9.752;2022-09-27T11:49:41;2.50;;;0.98;;
1545;SDS011;766;51.502;9.752;2022-09-27T11:52:22;2.00;;;0.80;;
1545;SDS011;766;51.502;9.752;2022-09-27T11:55:03;8.98;;;1.25;;
1545;SDS011;766;51.502;9.752;2022-09-27T11:57:45;1.98;;;0.60;;
1545;SDS011;766;51.502;9.752;2022-09-27T12:00:20;4.00;;;0.60;;
1545;SDS011;766;51.502;9.752;2022-09-27T12:03:07;1.70;;;0.60;;
1545;SDS011;766;51.502;9.752;2022-09-27T12:06:04;1.60;;;0.70;;
1545;SDS011;766;51.502;9.752;2022-09-27T12:08:53;5.93;;;0.82;;
1545;SDS011;766;51.502;9.752;2022-09-27T12:11:28;1.08;;;0.50;;
1545;SDS011;766;51.502;9.752;2022-09-27T12:14:05;3.03;;;0.60;;
1545;SDS011;766;51.502;9.752;2022-09-27T12:16:37;1.85;;;0.60;;
1545;SDS011;766;51.502;9.752;2022-09-27T12:19:10;3.38;;;0.60;;
1545;SDS011;766;51.502;9.752;2022-09-27T12:21:44;2.08;;;0.60;;
1545;SDS011;766;51.502;9.752;2022-09-27T12:24:16;3.60;;;0.52;;
1545;SDS011;766;51.502;9.752;2022-09-27T12:26:47;2.65;;;0.93;;
1545;SDS011;766;51.502;9.752;2022-09-27T12:29:21;1.58;;;0.70;;
1545;SDS011;766;51.502;9.752;2022-09-27T12:31:55;2.58;;;0.60;;
1545;SDS011;766;51.502;9.752;2022-09-27T12:34:31;1.65;;;0.90;;
1545;SDS011;766;51.502;9.752;2022-09-27T12:37:07;3.90;;;0.60;;
1545;SDS011;766;51.502;9.752;2022-09-27T12:39:44;1.50;;;0.50;;
1545;SDS011;766;51.502;9.752;2022-09-27T12:42:19;1.02;;;0.43;;
1545;SDS011;766;51.502;9.752;2022-09-27T12:44:52;0.95;;;0.47;;
1545;SDS011;766;51.502;9.752;2022-09-27T12:47:25;1.98;;;0.52;;
1545;SDS011;766;51.502;9.752;2022-09-27T12:50:12;3.58;;;0.80;;
1545;SDS011;766;51.502;9.752;2022-09-27T12:52:50;1.95;;;0.63;;
1545;SDS011;766;51.502;9.752;2022-09-27T12:58:19;1.77;;;0.70;;
1545;SDS011;766;51.502;9.752;2022-09-27T13:01:18;0.70;;;0.50;;
1545;SDS011;766;51.502;9.752;2022-09-27T13:04:02;1.48;;;0.68;;
1545;SDS011;766;51.502;9.752;2022-09-27T13:06:50;0.73;;;0.50;;
1545;SDS011;766;51.502;9.752;2022-09-27T13:09:35;1.42;;;0.80;;
1545;SDS011;766;51.502;9.752;2022-09-27T13:12:22;1.58;;;0.70;;
1545;SDS011;766;51.502;9.752;2022-09-27T13:14:56;0.73;;;0.52;;
1545;SDS011;766;51.502;9.752;2022-09-27T13:17:32;1.27;;;0.73;;
1545;SDS011;766;51.502;9.752;2022-09-27T13:20:36;0.60;;;0.55;;
1545;SDS011;766;51.502;9.752;2022-09-27T13:26:23;1.35;;;0.60;;
1545;SDS011;766;51.502;9.752;2022-09-27T13:29:28;4.30;;;0.60;;
1545;SDS011;766;51.502;9.752;2022-09-27T13:32:09;1.77;;;1.00;;
1545;SDS011;766;51.502;9.752;2022-09-27T13:34:48;1.25;;;0.60;;
1545;SDS011;766;51.502;9.752;2022-09-27T13:37:35;0.93;;;0.65;;
1545;SDS011;766;51.502;9.752;2022-09-27T13:40:26;1.30;;;0.65;;
1545;SDS011;766;51.502;9.752;2022-09-27T13:46:06;2.08;;;0.90;;
1545;SDS011;766;51.502;9.752;2022-09-27T13:48:45;1.85;;;0.60;;
1545;SDS011;766;51.502;9.752;2022-09-27T13:57:04;1.52;;;0.60;;
1545;SDS011;766;51.502;9.752;2022-09-27T14:00:10;2.72;;;0.55;;
1545;SDS011;766;51.502;9.752;2022-09-27T14:02:45;0.68;;;0.52;;
1545;SDS011;766;51.502;9.752;2022-09-27T14:05:23;0.70;;;0.60;;
1545;SDS011;766;51.502;9.752;2022-09-27T14:07:58;0.77;;;0.60;;
1545;SDS011;766;51.502;9.752;2022-09-27T14:10:29;0.60;;;0.60;;
1545;SDS011;766;51.502;9.752;2022-09-27T14:12:59;1.60;;;0.75;;
1545;SDS011;766;51.502;9.752;2022-09-27T14:15:31;0.73;;;0.70;;
1545;SDS011;766;51.502;9.752;2022-09-27T14:18:00;1.67;;;0.77;;
1545;SDS011;766;51.502;9.752;2022-09-27T14:20:33;0.63;;;0.47;;
1545;SDS011;766;51.502;9.752;2022-09-27T14:23:05;0.90;;;0.50;;
1545;SDS011;766;51.502;9.752;2022-09-27T14:25:45;1.13;;;0.88;;
1545;SDS011;766;51.502;9.752;2022-09-27T14:28:19;1.05;;;0.80;;
1545;SDS011;766;51.502;9.752;2022-09-27T14:31:03;0.95;;;0.70;;
1545;SDS011;766;51.502;9.752;2022-09-27T14:33:33;0.90;;;0.70;;
1545;SDS011;766;51.502;9.752;2022-09-27T14:36:02;1.05;;;0.60;;
1545;SDS011;766;51.502;9.752;2022-09-27T14:38:53;1.92;;;0.80;;
1545;SDS011;766;51.502;9.752;2022-09-27T14:41:24;0.65;;;0.63;;
1545;SDS011;766;51.502;9.752;2022-09-27T14:43:53;1.00;;;0.60;;
1545;SDS011;766;51.502;9.752;2022-09-27T14:46:24;1.42;;;0.68;;
1545;SDS011;766;51.502;9.752;2022-09-27T14:48:54;0.60;;;0.60;;
1545;SDS011;766;51.502;9.752;2022-09-27T14:51:27;1.00;;;0.80;;
1545;SDS011;766;51.502;9.752;2022-09-27T14:53:59;1.42;;;0.70;;
1545;SDS011;766;51.502;9.752;2022-09-27T14:56:32;7.68;;;1.10;;
1545;SDS011;766;51.502;9.752;2022-09-27T14:59:03;1.38;;;0.80;;
1545;SDS011;766;51.502;9.752;2022-09-27T15:01:37;4.35;;;0.90;;
1545;SDS011;766;51.502;9.752;2022-09-27T15:04:11;1.02;;;0.70;;
1545;SDS011;766;51.502;9.752;2022-09-27T15:06:42;1.58;;;0.70;;
1545;SDS011;766;51.502;9.752;2022-09-27T15:09:13;2.17;;;0.85;;
1545;SDS011;766;51.502;9.752;2022-09-27T15:11:43;1.58;;;0.70;;
1545;SDS011;766;51.502;9.752;2022-09-27T15:14:15;0.73;;;0.65;;
1545;SDS011;766;51.502;9.752;2022-09-27T15:16:46;1.23;;;0.70;;
1545;SDS011;766;51.502;9.752;2022-09-27T15:19:21;3.95;;;0.70;;
1545;SDS011;766;51.502;9.752;2022-09-27T15:21:51;2.70;;;0.60;;
1545;SDS011;766;51.502;9.752;2022-09-27T15:24:38;0.88;;;0.50;;
1545;SDS011;766;51.502;9.752;2022-09-27T15:27:13;2.97;;;0.80;;
1545;SDS011;766;51.502;9.752;2022-09-27T15:29:46;0.95;;;0.52;;
1545;SDS011;766;51.502;9.752;2022-09-27T15:32:17;0.98;;;0.75;;
1545;SDS011;766;51.502;9.752;2022-09-27T15:34:49;1.45;;;0.60;;
1545;SDS011;766;51.502;9.752;2022-09-27T15:37:25;2.47;;;0.80;;
1545;SDS011;766;51.502;9.752;2022-09-27T15:39:57;0.88;;;0.73;;
1545;SDS011;766;51.502;9.752;2022-09-27T15:42:56;0.82;;;0.80;;
1545;SDS011;766;51.502;9.752;2022-09-27T15:45:27;1.38;;;0.80;;
1545;SDS011;766;51.502;9.752;2022-09-27T15:47:56;0.93;;;0.70;;
1545;SDS011;766;51.502;9.752;2022-09-27T15:50:37;0.70;;;0.60;;
1545;SDS011;766;51.502;9.752;2022-09-27T15:53:06;2.35;;;0.70;;
1545;SDS011;766;51.502;9.752;2022-09-27T15:55:40;1.00;;;0.77;;
1545;SDS011;766;51.502;9.752;2022-09-27T15:58:11;3.30;;;0.88;;
1545;SDS011;766;51.502;9.752;2022-09-27T16:00:52;1.23;;;0.73;;
1545;SDS011;766;51.502;9.752;2022-09-27T16:03:21;1.25;;;0.70;;
1545;SDS011;766;51.502;9.752;2022-09-27T16:05:50;1.55;;;0.90;;
1545;SDS011;766;51.502;9.752;2022-09-27T16:08:20;1.30;;;0.90;;
1545;SDS011;766;51.502;9.752;2022-09-27T16:10:51;2.92;;;1.10;;
1545;SDS011;766;51.502;9.752;2022-09-27T16:13:21;1.27;;;0.82;;
1545;SDS011;766;51.502;9.752;2022-09-27T16:15:58;1.70;;;0.93;;
1545;SDS011;766;51.502;9.752;2022-09-27T16:18:29;3.50;;;1.00;;
1545;SDS011;766;51.502;9.752;2022-09-27T16:20:59;3.53;;;1.05;;
1545;SDS011;766;51.502;9.752;2022-09-27T16:23:32;1.77;;;0.88;;
1545;SDS011;766;51.502;9.752;2022-09-27T16:26:06;0.70;;;0.70;;
1545;SDS011;766;51.502;9.752;2022-09-27T16:28:35;1.00;;;0.93;;
1545;SDS011;766;51.502;9.752;2022-09-27T16:31:05;1.65;;;1.20;;
1545;SDS011;766;51.502;9.752;2022-09-27T16:33:35;1.00;;;0.90;;
1545;SDS011;766;51.502;9.752;2022-09-27T16:36:05;1.67;;;1.20;;